Terminal Aerodrome Forecast
Issued by NWS Milwaukee/Sullivan, WI

Home | Current Version | Previous Version | Text Only | Print | Product List | Glossary On
Versions: 1 2 3 4 5 6 7 8 9 10 11 12 13 14 15 16 17 18 19 20 21 22 23 24 25 26 27 28 29
000
FTUS43 KMKX 181252 AAA
TAFMSN
TAF AMD
KMSN 181252Z 1813/1912 35004KT 6SM BR SKC
     FM181500 03005KT P6SM SCT090
     FM182000 06006KT P6SM SCT090
     FM190000 09006KT P6SM SCT090
     FM190900 12008KT P6SM FEW090=

USA.gov is the U.S. government's official web portal to all federal, state and local government web resources and services.